ASA580 KSFO-KSEA
Flight info
| Callsign | ASA580 |
|---|---|
| Flight time | 1h 33m |
| Altitude | 34000 |
| Route | TRUKN2 DEDHD RBL LMT HAWKZ8 |
| Aircraft | MD83/M-SDFGIRWY/S |
Departure
| Time | 2026-05-04 01:15 |
|---|---|
| Airport | San Francisco International Airport (KSFO) |
Arrival
| Time | 2026-05-04 02:49 |
|---|---|
| Airport | Seattle–Tacoma International Airport (KSEA) |
| Time | Latitude | Longitude | Altitude | Speed | Heading |
|---|---|---|---|---|---|
| 2026-05-04 00:40 | 37.61299 | -122.38354 | 17 ft | 0 kts | 287° |
| 2026-05-04 01:03 | 37.61297 | -122.38347 | 17 ft | 4 kts | 291° |
| 2026-05-04 01:04 | 37.61286 | -122.38328 | 19 ft | 4 kts | 344° |
| 2026-05-04 01:04 | 37.61268 | -122.38333 | 19 ft | 4 kts | 29° |
| 2026-05-04 01:04 | 37.61254 | -122.38343 | 21 ft | 1 kts | 28° |
| 2026-05-04 01:07 | 37.61259 | -122.38339 | 21 ft | 2 kts | 28° |
| 2026-05-04 01:07 | 37.61284 | -122.38322 | 20 ft | 6 kts | 29° |
| 2026-05-04 01:07 | 37.61326 | -122.38293 | 16 ft | 7 kts | 29° |
| 2026-05-04 01:07 | 37.61348 | -122.38254 | 15 ft | 5 kts | 92° |
| 2026-05-04 01:08 | 37.61347 | -122.38200 | 15 ft | 7 kts | 77° |
| 2026-05-04 01:08 | 37.61381 | -122.38153 | 16 ft | 8 kts | 41° |
| 2026-05-04 01:08 | 37.61408 | -122.38093 | 18 ft | 8 kts | 75° |
| 2026-05-04 01:08 | 37.61437 | -122.38025 | 16 ft | 10 kts | 45° |
| 2026-05-04 01:09 | 37.61504 | -122.37976 | 16 ft | 12 kts | 26° |
| 2026-05-04 01:09 | 37.61586 | -122.37923 | 17 ft | 13 kts | 28° |
| 2026-05-04 01:09 | 37.61652 | -122.37874 | 19 ft | 9 kts | 47° |
| 2026-05-04 01:09 | 37.61666 | -122.37795 | 19 ft | 10 kts | 93° |
| 2026-05-04 01:10 | 37.61657 | -122.37694 | 19 ft | 13 kts | 97° |
| 2026-05-04 01:10 | 37.61646 | -122.37589 | 19 ft | 11 kts | 96° |
| 2026-05-04 01:10 | 37.61637 | -122.37485 | 22 ft | 11 kts | 98° |
| 2026-05-04 01:10 | 37.61628 | -122.37407 | 22 ft | 7 kts | 98° |
| 2026-05-04 01:11 | 37.61620 | -122.37337 | 26 ft | 8 kts | 98° |
| 2026-05-04 01:11 | 37.61611 | -122.37263 | 24 ft | 9 kts | 99° |
| 2026-05-04 01:11 | 37.61583 | -122.37185 | 23 ft | 11 kts | 116° |
| 2026-05-04 01:11 | 37.61540 | -122.37085 | 23 ft | 15 kts | 118° |
| 2026-05-04 01:12 | 37.61491 | -122.36971 | 23 ft | 15 kts | 119° |
| 2026-05-04 01:12 | 37.61421 | -122.36861 | 20 ft | 17 kts | 136° |
| 2026-05-04 01:12 | 37.61346 | -122.36736 | 19 ft | 18 kts | 123° |
| 2026-05-04 01:12 | 37.61286 | -122.36590 | 17 ft | 20 kts | 118° |
| 2026-05-04 01:13 | 37.61220 | -122.36433 | 18 ft | 20 kts | 118° |
| 2026-05-04 01:13 | 37.61155 | -122.36278 | 20 ft | 20 kts | 118° |
| 2026-05-04 01:13 | 37.61089 | -122.36121 | 19 ft | 18 kts | 116° |
| 2026-05-04 01:13 | 37.61051 | -122.35996 | 20 ft | 13 kts | 96° |
| 2026-05-04 01:14 | 37.61096 | -122.35906 | 20 ft | 12 kts | 34° |
| 2026-05-04 01:14 | 37.61160 | -122.35862 | 21 ft | 7 kts | 17° |
| 2026-05-04 01:14 | 37.61191 | -122.35891 | 20 ft | 9 kts | 297° |
| 2026-05-04 01:14 | 37.61250 | -122.36033 | 18 ft | 36 kts | 297° |
| 2026-05-04 01:15 | 37.61471 | -122.36558 | 18 ft | 100 kts | 300° |
| 2026-05-04 01:15 | 37.61891 | -122.37561 | 24 ft | 157 kts | 298° |
| 2026-05-04 01:15 | 37.62480 | -122.38863 | 529 ft | 171 kts | 296° |
| 2026-05-04 01:15 | 37.63249 | -122.39963 | 1478 ft | 170 kts | 319° |
| 2026-05-04 01:16 | 37.64254 | -122.40750 | 2368 ft | 170 kts | 332° |
| 2026-05-04 01:16 | 37.65395 | -122.41156 | 3191 ft | 173 kts | 352° |
| 2026-05-04 01:16 | 37.66621 | -122.41045 | 3859 ft | 181 kts | 14° |
| 2026-05-04 01:16 | 37.67763 | -122.40396 | 4639 ft | 181 kts | 37° |
| 2026-05-04 01:17 | 37.68605 | -122.39152 | 5022 ft | 201 kts | 71° |
| 2026-05-04 01:17 | 37.69061 | -122.37468 | 5725 ft | 203 kts | 77° |
| 2026-05-04 01:17 | 37.69481 | -122.35712 | 6269 ft | 218 kts | 78° |
| 2026-05-04 01:17 | 37.69899 | -122.33758 | 6623 ft | 241 kts | 80° |
| 2026-05-04 01:18 | 37.70289 | -122.31601 | 7048 ft | 261 kts | 82° |
| 2026-05-04 01:18 | 37.70660 | -122.29286 | 7533 ft | 276 kts | 82° |
| 2026-05-04 01:18 | 37.71022 | -122.26898 | 8306 ft | 278 kts | 82° |
| 2026-05-04 01:18 | 37.71392 | -122.24507 | 9052 ft | 283 kts | 77° |
| 2026-05-04 01:19 | 37.72324 | -122.22295 | 9802 ft | 293 kts | 48° |
| 2026-05-04 01:19 | 37.74021 | -122.20805 | 10321 ft | 310 kts | 22° |
| 2026-05-04 01:19 | 37.76207 | -122.20210 | 10507 ft | 334 kts | 7° |
| 2026-05-04 01:19 | 37.78588 | -122.19937 | 10725 ft | 353 kts | 6° |
| 2026-05-04 01:20 | 37.81103 | -122.19674 | 10946 ft | 371 kts | 6° |
| 2026-05-04 01:20 | 37.83714 | -122.19397 | 11396 ft | 379 kts | 7° |
| 2026-05-04 01:20 | 37.86351 | -122.19094 | 12105 ft | 381 kts | 7° |
| 2026-05-04 01:20 | 37.88990 | -122.18747 | 12901 ft | 381 kts | 8° |
| 2026-05-04 01:21 | 37.91626 | -122.18355 | 13689 ft | 382 kts | 9° |
| 2026-05-04 01:21 | 37.94268 | -122.17927 | 14312 ft | 385 kts | 10° |
| 2026-05-04 01:21 | 37.96941 | -122.17472 | 14878 ft | 389 kts | 10° |
| 2026-05-04 01:21 | 37.99639 | -122.17005 | 15461 ft | 393 kts | 10° |
| 2026-05-04 01:22 | 38.02362 | -122.16533 | 16060 ft | 397 kts | 9° |
| 2026-05-04 01:22 | 38.05083 | -122.16068 | 16624 ft | 401 kts | 9° |
| 2026-05-04 01:22 | 38.07868 | -122.15594 | 17221 ft | 405 kts | 10° |
| 2026-05-04 01:22 | 38.10673 | -122.15122 | 17814 ft | 409 kts | 9° |
| 2026-05-04 01:23 | 38.13503 | -122.14650 | 18399 ft | 412 kts | 10° |
| 2026-05-04 01:23 | 38.16350 | -122.14179 | 18982 ft | 413 kts | 10° |
| 2026-05-04 01:23 | 38.19208 | -122.13705 | 19580 ft | 415 kts | 10° |
| 2026-05-04 01:23 | 38.22083 | -122.13231 | 20155 ft | 417 kts | 11° |
| 2026-05-04 01:24 | 38.24972 | -122.12756 | 20713 ft | 420 kts | 11° |
| 2026-05-04 01:24 | 38.27881 | -122.12275 | 21275 ft | 422 kts | 11° |
| 2026-05-04 01:24 | 38.30805 | -122.11789 | 21799 ft | 425 kts | 12° |
| 2026-05-04 01:24 | 38.33758 | -122.11344 | 22392 ft | 429 kts | 8° |
| 2026-05-04 01:25 | 38.36768 | -122.11336 | 22925 ft | 436 kts | 2° |
| 2026-05-04 01:25 | 38.39807 | -122.11562 | 23440 ft | 439 kts | 1° |
| 2026-05-04 01:25 | 38.42860 | -122.11845 | 23947 ft | 440 kts | 1° |
| 2026-05-04 01:25 | 38.45920 | -122.12180 | 24387 ft | 443 kts | 353° |
| 2026-05-04 01:26 | 38.48991 | -122.12748 | 24347 ft | 450 kts | 353° |
| 2026-05-04 01:26 | 38.52070 | -122.12838 | 25030 ft | 433 kts | 10° |
| 2026-05-04 01:26 | 38.55093 | -122.12609 | 25385 ft | 440 kts | 7° |
| 2026-05-04 01:26 | 38.58141 | -122.12725 | 25738 ft | 447 kts | 2° |
| 2026-05-04 01:27 | 38.61245 | -122.13049 | 26237 ft | 449 kts | 360° |
| 2026-05-04 01:27 | 38.64362 | -122.13404 | 26673 ft | 450 kts | 1° |
| 2026-05-04 01:27 | 38.67493 | -122.13707 | 27150 ft | 450 kts | 359° |
| 2026-05-04 01:27 | 38.70608 | -122.14018 | 27756 ft | 447 kts | 0° |
| 2026-05-04 01:28 | 38.73695 | -122.14249 | 28380 ft | 443 kts | 1° |
| 2026-05-04 01:28 | 38.76755 | -122.14386 | 28988 ft | 438 kts | 6° |
| 2026-05-04 01:28 | 38.79800 | -122.14447 | 29551 ft | 436 kts | 5° |
| 2026-05-04 01:28 | 38.82835 | -122.14597 | 30056 ft | 436 kts | 3° |
| 2026-05-04 01:29 | 38.85868 | -122.14823 | 30426 ft | 437 kts | 2° |
| 2026-05-04 01:29 | 38.88911 | -122.15060 | 30824 ft | 437 kts | 2° |
| 2026-05-04 01:29 | 38.91944 | -122.15289 | 31223 ft | 436 kts | 2° |
| 2026-05-04 01:29 | 38.94971 | -122.15512 | 31629 ft | 435 kts | 2° |
| 2026-05-04 01:30 | 38.97949 | -122.15727 | 32038 ft | 434 kts | 2° |
| 2026-05-04 01:30 | 39.00959 | -122.15940 | 32432 ft | 433 kts | 2° |
| 2026-05-04 01:30 | 39.03964 | -122.16148 | 32761 ft | 433 kts | 2° |
| 2026-05-04 01:30 | 39.06977 | -122.16354 | 33068 ft | 434 kts | 2° |
| 2026-05-04 01:31 | 39.09986 | -122.16560 | 33415 ft | 433 kts | 2° |
| 2026-05-04 01:31 | 39.12998 | -122.16769 | 33703 ft | 434 kts | 2° |
| 2026-05-04 01:31 | 39.16023 | -122.16977 | 33830 ft | 438 kts | 2° |
| 2026-05-04 01:32 | 39.22192 | -122.17401 | 33908 ft | 449 kts | 2° |
| 2026-05-04 01:32 | 39.28450 | -122.17840 | 33918 ft | 449 kts | 2° |
| 2026-05-04 01:33 | 39.34672 | -122.18285 | 33927 ft | 446 kts | 2° |
| 2026-05-04 01:33 | 39.40870 | -122.18724 | 33929 ft | 446 kts | 2° |
| 2026-05-04 01:34 | 39.47076 | -122.19160 | 33931 ft | 446 kts | 2° |
| 2026-05-04 01:34 | 39.53273 | -122.19598 | 33932 ft | 446 kts | 2° |
| 2026-05-04 01:35 | 39.59462 | -122.20035 | 33933 ft | 445 kts | 2° |
| 2026-05-04 01:35 | 39.65647 | -122.20473 | 33943 ft | 446 kts | 2° |
| 2026-05-04 01:36 | 39.71789 | -122.20911 | 33937 ft | 444 kts | 2° |
| 2026-05-04 01:36 | 39.77949 | -122.21349 | 33943 ft | 443 kts | 2° |
| 2026-05-04 01:37 | 39.84119 | -122.21786 | 33954 ft | 444 kts | 2° |
| 2026-05-04 01:37 | 39.90309 | -122.22227 | 33952 ft | 446 kts | 2° |
| 2026-05-04 01:38 | 39.96506 | -122.22671 | 33958 ft | 446 kts | 2° |
| 2026-05-04 01:38 | 40.02705 | -122.23116 | 33964 ft | 446 kts | 2° |
| 2026-05-04 01:39 | 40.08901 | -122.23551 | 33969 ft | 445 kts | 3° |
| 2026-05-04 01:39 | 40.14971 | -122.22617 | 33969 ft | 439 kts | 16° |
| 2026-05-04 01:40 | 40.20940 | -122.21026 | 33967 ft | 441 kts | 16° |
| 2026-05-04 01:40 | 40.26985 | -122.19460 | 33963 ft | 443 kts | 15° |
| 2026-05-04 01:41 | 40.33069 | -122.17977 | 33948 ft | 445 kts | 15° |
| 2026-05-04 01:41 | 40.39176 | -122.16527 | 33939 ft | 445 kts | 15° |
| 2026-05-04 01:42 | 40.45280 | -122.15069 | 33945 ft | 445 kts | 15° |
| 2026-05-04 01:42 | 40.51341 | -122.13604 | 33946 ft | 445 kts | 15° |
| 2026-05-04 01:43 | 40.57429 | -122.12120 | 33935 ft | 444 kts | 15° |
| 2026-05-04 01:43 | 40.63503 | -122.10638 | 33943 ft | 443 kts | 14° |
| 2026-05-04 01:44 | 40.69545 | -122.09168 | 33923 ft | 440 kts | 14° |
| 2026-05-04 01:44 | 40.75550 | -122.07705 | 33918 ft | 438 kts | 14° |
| 2026-05-04 01:45 | 40.81507 | -122.06249 | 33913 ft | 438 kts | 14° |
| 2026-05-04 01:45 | 40.90470 | -122.04052 | 33903 ft | 436 kts | 14° |
| 2026-05-04 01:46 | 40.96441 | -122.02577 | 33908 ft | 436 kts | 14° |
| 2026-05-04 01:46 | 41.02410 | -122.01103 | 33905 ft | 436 kts | 14° |
| 2026-05-04 01:47 | 41.08378 | -121.99632 | 33906 ft | 436 kts | 13° |
| 2026-05-04 01:47 | 41.14339 | -121.98160 | 33904 ft | 435 kts | 13° |
| 2026-05-04 01:48 | 41.20275 | -121.96693 | 33909 ft | 433 kts | 13° |
| 2026-05-04 01:48 | 41.26205 | -121.95221 | 33907 ft | 434 kts | 13° |
| 2026-05-04 01:49 | 41.32153 | -121.93740 | 33912 ft | 435 kts | 13° |
| 2026-05-04 01:49 | 41.38073 | -121.92264 | 33913 ft | 435 kts | 13° |
| 2026-05-04 01:50 | 41.44028 | -121.90773 | 33915 ft | 436 kts | 13° |
| 2026-05-04 01:50 | 41.48991 | -121.89529 | 33917 ft | 437 kts | 13° |
| 2026-05-04 01:51 | 41.54967 | -121.88033 | 33921 ft | 437 kts | 12° |
| 2026-05-04 01:51 | 41.60962 | -121.86531 | 33921 ft | 438 kts | 12° |
| 2026-05-04 01:52 | 41.66949 | -121.85029 | 33915 ft | 437 kts | 12° |
| 2026-05-04 01:52 | 41.72921 | -121.83524 | 33913 ft | 436 kts | 12° |
| 2026-05-04 01:53 | 41.78901 | -121.82011 | 33912 ft | 438 kts | 12° |
| 2026-05-04 01:53 | 41.84896 | -121.80491 | 33923 ft | 439 kts | 12° |
| 2026-05-04 01:54 | 41.90899 | -121.78971 | 33932 ft | 439 kts | 12° |
| 2026-05-04 01:54 | 41.96877 | -121.77454 | 33934 ft | 439 kts | 12° |
| 2026-05-04 01:55 | 42.02891 | -121.75926 | 33957 ft | 440 kts | 12° |
| 2026-05-04 01:55 | 42.08906 | -121.74393 | 33960 ft | 440 kts | 12° |
| 2026-05-04 01:56 | 42.14920 | -121.72954 | 33960 ft | 439 kts | 4° |
| 2026-05-04 01:56 | 42.17972 | -121.73149 | 33965 ft | 441 kts | 353° |
| 2026-05-04 01:56 | 42.21008 | -121.73816 | 33960 ft | 443 kts | 351° |
| 2026-05-04 01:57 | 42.27065 | -121.75354 | 33958 ft | 443 kts | 350° |
| 2026-05-04 01:57 | 42.33144 | -121.76858 | 33940 ft | 444 kts | 351° |
| 2026-05-04 01:58 | 42.39228 | -121.78260 | 33927 ft | 443 kts | 352° |
| 2026-05-04 01:58 | 42.45304 | -121.79619 | 33912 ft | 442 kts | 351° |
| 2026-05-04 01:59 | 42.51318 | -121.80972 | 33897 ft | 440 kts | 351° |
| 2026-05-04 01:59 | 42.57357 | -121.82346 | 33904 ft | 440 kts | 351° |
| 2026-05-04 02:00 | 42.63397 | -121.83731 | 33897 ft | 438 kts | 351° |
| 2026-05-04 02:00 | 42.69396 | -121.85109 | 33895 ft | 437 kts | 351° |
| 2026-05-04 02:01 | 42.75416 | -121.86492 | 33896 ft | 440 kts | 351° |
| 2026-05-04 02:01 | 42.81440 | -121.87880 | 33894 ft | 438 kts | 351° |
| 2026-05-04 02:02 | 42.87444 | -121.89269 | 33895 ft | 438 kts | 351° |
| 2026-05-04 02:02 | 42.93411 | -121.90651 | 33895 ft | 436 kts | 351° |
| 2026-05-04 02:03 | 42.99396 | -121.92037 | 33899 ft | 436 kts | 351° |
| 2026-05-04 02:03 | 43.05406 | -121.93428 | 33900 ft | 437 kts | 351° |
| 2026-05-04 02:04 | 43.11391 | -121.94819 | 33902 ft | 436 kts | 351° |
| 2026-05-04 02:04 | 43.17353 | -121.96212 | 33905 ft | 437 kts | 351° |
| 2026-05-04 02:05 | 43.23336 | -121.97610 | 33902 ft | 435 kts | 351° |
| 2026-05-04 02:05 | 43.29337 | -121.99016 | 33903 ft | 439 kts | 351° |
| 2026-05-04 02:06 | 43.35334 | -122.00427 | 33907 ft | 436 kts | 351° |
| 2026-05-04 02:06 | 43.41316 | -122.01851 | 33907 ft | 435 kts | 351° |
| 2026-05-04 02:07 | 43.47286 | -122.03271 | 33905 ft | 436 kts | 351° |
| 2026-05-04 02:07 | 43.53277 | -122.04686 | 33902 ft | 437 kts | 352° |
| 2026-05-04 02:08 | 43.59284 | -122.06105 | 33903 ft | 438 kts | 352° |
| 2026-05-04 02:08 | 43.65257 | -122.07519 | 33895 ft | 438 kts | 352° |
| 2026-05-04 02:09 | 43.71270 | -122.08954 | 33890 ft | 437 kts | 352° |
| 2026-05-04 02:09 | 43.77268 | -122.10383 | 33886 ft | 436 kts | 353° |
| 2026-05-04 02:10 | 43.83260 | -122.11815 | 33885 ft | 436 kts | 353° |
| 2026-05-04 02:10 | 43.89246 | -122.13250 | 33881 ft | 436 kts | 353° |
| 2026-05-04 02:11 | 43.95236 | -122.14683 | 33873 ft | 437 kts | 354° |
| 2026-05-04 02:11 | 44.01196 | -122.16114 | 33869 ft | 437 kts | 354° |
| 2026-05-04 02:12 | 44.07192 | -122.17555 | 33878 ft | 437 kts | 354° |
| 2026-05-04 02:12 | 44.13201 | -122.18993 | 33874 ft | 438 kts | 354° |
| 2026-05-04 02:13 | 44.19212 | -122.20446 | 33867 ft | 437 kts | 354° |
| 2026-05-04 02:13 | 44.25197 | -122.21901 | 33870 ft | 436 kts | 354° |
| 2026-05-04 02:14 | 44.31176 | -122.23353 | 33871 ft | 436 kts | 354° |
| 2026-05-04 02:14 | 44.37147 | -122.24804 | 33868 ft | 436 kts | 354° |
| 2026-05-04 02:15 | 44.43123 | -122.26259 | 33864 ft | 435 kts | 354° |
| 2026-05-04 02:15 | 44.49091 | -122.27714 | 33862 ft | 436 kts | 354° |
| 2026-05-04 02:16 | 44.55075 | -122.29178 | 33863 ft | 437 kts | 353° |
| 2026-05-04 02:16 | 44.61017 | -122.30639 | 33862 ft | 435 kts | 353° |
| 2026-05-04 02:17 | 44.66959 | -122.32104 | 33857 ft | 432 kts | 354° |
| 2026-05-04 02:17 | 44.72906 | -122.33570 | 33864 ft | 434 kts | 353° |
| 2026-05-04 02:18 | 44.78865 | -122.35039 | 33856 ft | 434 kts | 353° |
| 2026-05-04 02:18 | 44.84809 | -122.36508 | 33859 ft | 433 kts | 353° |
| 2026-05-04 02:19 | 44.90736 | -122.37977 | 33856 ft | 432 kts | 353° |
| 2026-05-04 02:19 | 44.96631 | -122.39434 | 33841 ft | 433 kts | 353° |
| 2026-05-04 02:20 | 45.02562 | -122.40907 | 33840 ft | 433 kts | 353° |
| 2026-05-04 02:20 | 45.08499 | -122.42375 | 33831 ft | 432 kts | 353° |
| 2026-05-04 02:21 | 45.14413 | -122.43851 | 33823 ft | 430 kts | 353° |
| 2026-05-04 02:21 | 45.20319 | -122.45331 | 33819 ft | 430 kts | 353° |
| 2026-05-04 02:22 | 45.26218 | -122.46816 | 33812 ft | 431 kts | 353° |
| 2026-05-04 02:22 | 45.32116 | -122.48325 | 33812 ft | 430 kts | 353° |
| 2026-05-04 02:23 | 45.37963 | -122.49822 | 33791 ft | 430 kts | 353° |
| 2026-05-04 02:23 | 45.43848 | -122.51308 | 33787 ft | 430 kts | 353° |
| 2026-05-04 02:24 | 45.49738 | -122.52791 | 33779 ft | 429 kts | 353° |
| 2026-05-04 02:24 | 45.55611 | -122.54275 | 33805 ft | 428 kts | 353° |
| 2026-05-04 02:25 | 45.61475 | -122.55762 | 33802 ft | 428 kts | 353° |
| 2026-05-04 02:25 | 45.67344 | -122.57256 | 33810 ft | 427 kts | 353° |
| 2026-05-04 02:26 | 45.73209 | -122.58751 | 33692 ft | 430 kts | 353° |
| 2026-05-04 02:26 | 45.76150 | -122.59494 | 33191 ft | 437 kts | 353° |
| 2026-05-04 02:26 | 45.79126 | -122.60236 | 33075 ft | 432 kts | 353° |
| 2026-05-04 02:27 | 45.82084 | -122.60970 | 32860 ft | 432 kts | 353° |
| 2026-05-04 02:27 | 45.85048 | -122.61701 | 32601 ft | 431 kts | 353° |
| 2026-05-04 02:27 | 45.88007 | -122.62430 | 32319 ft | 432 kts | 353° |
| 2026-05-04 02:27 | 45.90981 | -122.63162 | 32013 ft | 434 kts | 353° |
| 2026-05-04 02:28 | 45.93970 | -122.63899 | 31685 ft | 436 kts | 353° |
| 2026-05-04 02:28 | 45.96966 | -122.64639 | 31372 ft | 438 kts | 353° |
| 2026-05-04 02:28 | 45.99975 | -122.65384 | 31022 ft | 440 kts | 353° |
| 2026-05-04 02:28 | 46.02996 | -122.66133 | 30677 ft | 442 kts | 353° |
| 2026-05-04 02:29 | 46.06032 | -122.66888 | 30329 ft | 443 kts | 352° |
| 2026-05-04 02:29 | 46.09081 | -122.67648 | 29992 ft | 445 kts | 352° |
| 2026-05-04 02:29 | 46.12148 | -122.68352 | 29327 ft | 450 kts | 353° |
| 2026-05-04 02:29 | 46.15259 | -122.68978 | 28519 ft | 452 kts | 354° |
| 2026-05-04 02:30 | 46.18337 | -122.69559 | 27776 ft | 452 kts | 354° |
| 2026-05-04 02:30 | 46.21462 | -122.70143 | 27072 ft | 453 kts | 354° |
| 2026-05-04 02:30 | 46.24556 | -122.70731 | 26383 ft | 444 kts | 354° |
| 2026-05-04 02:30 | 46.27602 | -122.71321 | 25711 ft | 442 kts | 354° |
| 2026-05-04 02:31 | 46.30625 | -122.71915 | 25054 ft | 434 kts | 353° |
| 2026-05-04 02:31 | 46.33598 | -122.72379 | 24331 ft | 428 kts | 357° |
| 2026-05-04 02:31 | 46.36563 | -122.72553 | 23504 ft | 425 kts | 360° |
| 2026-05-04 02:31 | 46.39514 | -122.72611 | 22570 ft | 423 kts | 0° |
| 2026-05-04 02:32 | 46.42453 | -122.72647 | 21702 ft | 420 kts | 0° |
| 2026-05-04 02:32 | 46.45363 | -122.72694 | 20883 ft | 416 kts | 360° |
| 2026-05-04 02:32 | 46.48248 | -122.72759 | 20104 ft | 412 kts | 360° |
| 2026-05-04 02:32 | 46.51102 | -122.72843 | 19335 ft | 409 kts | 359° |
| 2026-05-04 02:33 | 46.53903 | -122.72942 | 18589 ft | 405 kts | 359° |
| 2026-05-04 02:33 | 46.56715 | -122.73049 | 17780 ft | 403 kts | 359° |
| 2026-05-04 02:33 | 46.59510 | -122.73160 | 16942 ft | 400 kts | 359° |
| 2026-05-04 02:33 | 46.62283 | -122.73273 | 16149 ft | 396 kts | 359° |
| 2026-05-04 02:34 | 46.65028 | -122.73382 | 15387 ft | 393 kts | 359° |
| 2026-05-04 02:34 | 46.67744 | -122.73487 | 14699 ft | 387 kts | 359° |
| 2026-05-04 02:34 | 46.70407 | -122.73588 | 14212 ft | 377 kts | 359° |
| 2026-05-04 02:34 | 46.72959 | -122.73683 | 14137 ft | 355 kts | 360° |
| 2026-05-04 02:35 | 46.75368 | -122.73773 | 14063 ft | 335 kts | 359° |
| 2026-05-04 02:35 | 46.77632 | -122.73700 | 13990 ft | 317 kts | 12° |
| 2026-05-04 02:35 | 46.79641 | -122.72537 | 13811 ft | 317 kts | 33° |
| 2026-05-04 02:35 | 46.81473 | -122.70569 | 13337 ft | 330 kts | 39° |
| 2026-05-04 02:36 | 46.83261 | -122.68459 | 12832 ft | 331 kts | 40° |
| 2026-05-04 02:36 | 46.84435 | -122.67038 | 12500 ft | 328 kts | 40° |
| 2026-05-04 02:36 | 46.86118 | -122.64819 | 11955 ft | 325 kts | 44° |
| 2026-05-04 02:36 | 46.87730 | -122.62515 | 11370 ft | 323 kts | 44° |
| 2026-05-04 02:37 | 46.89308 | -122.60218 | 11009 ft | 315 kts | 44° |
| 2026-05-04 02:37 | 46.90826 | -122.58018 | 10883 ft | 300 kts | 44° |
| 2026-05-04 02:37 | 46.92255 | -122.55890 | 10702 ft | 288 kts | 45° |
| 2026-05-04 02:37 | 46.93614 | -122.53811 | 10522 ft | 278 kts | 46° |
| 2026-05-04 02:38 | 46.94917 | -122.51805 | 10373 ft | 267 kts | 46° |
| 2026-05-04 02:38 | 46.96180 | -122.49871 | 10186 ft | 258 kts | 46° |
| 2026-05-04 02:38 | 46.97401 | -122.48007 | 9984 ft | 250 kts | 45° |
| 2026-05-04 02:38 | 46.98656 | -122.46284 | 9698 ft | 246 kts | 34° |
| 2026-05-04 02:39 | 47.00103 | -122.44958 | 9381 ft | 243 kts | 28° |
| 2026-05-04 02:39 | 47.01571 | -122.43757 | 9089 ft | 240 kts | 28° |
| 2026-05-04 02:39 | 47.02889 | -122.42687 | 8817 ft | 239 kts | 28° |
| 2026-05-04 02:39 | 47.04343 | -122.41513 | 8522 ft | 237 kts | 27° |
| 2026-05-04 02:40 | 47.05782 | -122.40353 | 8225 ft | 235 kts | 27° |
| 2026-05-04 02:40 | 47.07212 | -122.39196 | 7935 ft | 234 kts | 27° |
| 2026-05-04 02:40 | 47.08631 | -122.38037 | 7631 ft | 232 kts | 28° |
| 2026-05-04 02:40 | 47.10032 | -122.36880 | 7351 ft | 227 kts | 28° |
| 2026-05-04 02:41 | 47.11407 | -122.35738 | 6871 ft | 228 kts | 28° |
| 2026-05-04 02:41 | 47.12779 | -122.34692 | 6621 ft | 216 kts | 19° |
| 2026-05-04 02:41 | 47.14172 | -122.34088 | 6478 ft | 199 kts | 12° |
| 2026-05-04 02:41 | 47.15461 | -122.33635 | 6342 ft | 184 kts | 12° |
| 2026-05-04 02:42 | 47.16692 | -122.33209 | 6068 ft | 180 kts | 12° |
| 2026-05-04 02:42 | 47.17910 | -122.32788 | 5741 ft | 180 kts | 12° |
| 2026-05-04 02:42 | 47.19123 | -122.32367 | 5443 ft | 178 kts | 12° |
| 2026-05-04 02:42 | 47.20348 | -122.32062 | 5121 ft | 178 kts | 2° |
| 2026-05-04 02:43 | 47.21583 | -122.32030 | 4865 ft | 175 kts | 359° |
| 2026-05-04 02:43 | 47.22754 | -122.32026 | 4726 ft | 170 kts | 0° |
| 2026-05-04 02:43 | 47.23959 | -122.32007 | 4359 ft | 174 kts | 1° |
| 2026-05-04 02:43 | 47.25158 | -122.31990 | 4089 ft | 174 kts | 1° |
| 2026-05-04 02:44 | 47.26371 | -122.31966 | 3792 ft | 174 kts | 0° |
| 2026-05-04 02:44 | 47.27579 | -122.31956 | 3534 ft | 173 kts | 0° |
| 2026-05-04 02:44 | 47.28777 | -122.31948 | 3286 ft | 171 kts | 0° |
| 2026-05-04 02:44 | 47.29962 | -122.31934 | 3067 ft | 169 kts | 1° |
| 2026-05-04 02:45 | 47.31132 | -122.31920 | 2817 ft | 167 kts | 0° |
| 2026-05-04 02:45 | 47.32281 | -122.31912 | 2617 ft | 164 kts | 1° |
| 2026-05-04 02:45 | 47.33414 | -122.31900 | 2414 ft | 162 kts | 1° |
| 2026-05-04 02:45 | 47.34530 | -122.31887 | 2234 ft | 156 kts | 1° |
| 2026-05-04 02:46 | 47.35564 | -122.31874 | 2059 ft | 144 kts | 360° |
| 2026-05-04 02:46 | 47.36547 | -122.31877 | 1866 ft | 139 kts | 359° |
| 2026-05-04 02:46 | 47.37509 | -122.31863 | 1662 ft | 137 kts | 1° |
| 2026-05-04 02:46 | 47.38453 | -122.31851 | 1487 ft | 135 kts | 1° |
| 2026-05-04 02:47 | 47.39387 | -122.31846 | 1324 ft | 136 kts | 1° |
| 2026-05-04 02:47 | 47.40328 | -122.31835 | 1138 ft | 137 kts | 0° |
| 2026-05-04 02:47 | 47.41277 | -122.31826 | 952 ft | 137 kts | 0° |
| 2026-05-04 02:47 | 47.42251 | -122.31806 | 741 ft | 141 kts | 0° |
| 2026-05-04 02:48 | 47.43228 | -122.31807 | 561 ft | 142 kts | 1° |
| 2026-05-04 02:48 | 47.44200 | -122.31805 | 402 ft | 138 kts | 0° |
| 2026-05-04 02:48 | 47.45108 | -122.31801 | 394 ft | 118 kts | 0° |
| 2026-05-04 02:48 | 47.45665 | -122.31789 | 410 ft | 53 kts | 3° |
| 2026-05-04 02:49 | 47.45863 | -122.31722 | 416 ft | 7 kts | 24° |
| 2026-05-04 02:49 | 47.45881 | -122.31710 | 416 ft | 7 kts | 24° |
| 2026-05-04 02:49 | 47.45931 | -122.31666 | 411 ft | 12 kts | 39° |
| 2026-05-04 02:49 | 47.45983 | -122.31579 | 414 ft | 10 kts | 58° |
| 2026-05-04 02:50 | 47.46008 | -122.31480 | 413 ft | 13 kts | 76° |
| 2026-05-04 02:50 | 47.46014 | -122.31331 | 428 ft | 15 kts | 91° |
| 2026-05-04 02:50 | 47.46012 | -122.31194 | 432 ft | 13 kts | 89° |
| 2026-05-04 02:50 | 47.46012 | -122.31035 | 427 ft | 17 kts | 90° |
| 2026-05-04 02:51 | 47.46011 | -122.30864 | 427 ft | 19 kts | 91° |
| 2026-05-04 02:51 | 47.46006 | -122.30675 | 426 ft | 17 kts | 108° |
| 2026-05-04 02:51 | 47.45910 | -122.30613 | 432 ft | 19 kts | 182° |
| 2026-05-04 02:51 | 47.45769 | -122.30620 | 428 ft | 21 kts | 179° |
| 2026-05-04 02:52 | 47.45627 | -122.30622 | 431 ft | 21 kts | 180° |
| 2026-05-04 02:52 | 47.45479 | -122.30621 | 429 ft | 22 kts | 179° |
| 2026-05-04 02:52 | 47.45315 | -122.30625 | 420 ft | 25 kts | 181° |
| 2026-05-04 02:52 | 47.45157 | -122.30626 | 417 ft | 17 kts | 181° |
| 2026-05-04 02:53 | 47.45083 | -122.30627 | 415 ft | 11 kts | 180° |
| 2026-05-04 02:53 | 47.44991 | -122.30627 | 412 ft | 15 kts | 180° |
| 2026-05-04 02:53 | 47.44876 | -122.30628 | 405 ft | 16 kts | 178° |
| 2026-05-04 02:53 | 47.44807 | -122.30565 | 407 ft | 10 kts | 106° |
| 2026-05-04 02:54 | 47.44815 | -122.30487 | 406 ft | 7 kts | 71° |
| 2026-05-04 02:54 | 47.44833 | -122.30448 | 407 ft | 3 kts | 39° |
| 2026-05-04 02:54 | 47.44849 | -122.30427 | 410 ft | 3 kts | 43° |
| 2026-05-04 02:54 | 47.44859 | -122.30413 | 406 ft | 0 kts | 43° |